sensor_id;sensor_type;location;lat;lon;timestamp;P1;durP1;ratioP1;P2;durP2;ratioP2
52266;SDS011;38223;50.940;4.034;2023-04-09T00:00:31;86.97;;;55.90;;
52266;SDS011;38223;50.940;4.034;2023-04-09T00:03:21;74.85;;;53.80;;
52266;SDS011;38223;50.940;4.034;2023-04-09T00:05:54;78.62;;;54.45;;
52266;SDS011;38223;50.940;4.034;2023-04-09T00:08:23;85.45;;;56.05;;
52266;SDS011;38223;50.940;4.034;2023-04-09T00:10:51;73.67;;;53.02;;
52266;SDS011;38223;50.940;4.034;2023-04-09T00:13:27;78.23;;;53.47;;
52266;SDS011;38223;50.940;4.034;2023-04-09T00:15:59;80.77;;;53.00;;
52266;SDS011;38223;50.940;4.034;2023-04-09T00:18:34;83.50;;;52.33;;
52266;SDS011;38223;50.940;4.034;2023-04-09T00:21:08;75.83;;;51.70;;
52266;SDS011;38223;50.940;4.034;2023-04-09T00:23:42;75.90;;;51.48;;
52266;SDS011;38223;50.940;4.034;2023-04-09T00:26:18;82.62;;;53.42;;
52266;SDS011;38223;50.940;4.034;2023-04-09T00:28:51;79.53;;;52.80;;
52266;SDS011;38223;50.940;4.034;2023-04-09T00:31:33;80.83;;;52.65;;
52266;SDS011;38223;50.940;4.034;2023-04-09T00:34:15;82.15;;;52.60;;
52266;SDS011;38223;50.940;4.034;2023-04-09T00:36:49;77.58;;;54.23;;
52266;SDS011;38223;50.940;4.034;2023-04-09T00:39:21;82.97;;;55.20;;
52266;SDS011;38223;50.940;4.034;2023-04-09T00:41:49;83.30;;;53.85;;
52266;SDS011;38223;50.940;4.034;2023-04-09T00:44:27;82.25;;;54.80;;
52266;SDS011;38223;50.940;4.034;2023-04-09T00:46:55;87.35;;;56.60;;
52266;SDS011;38223;50.940;4.034;2023-04-09T00:49:25;83.15;;;55.83;;
52266;SDS011;38223;50.940;4.034;2023-04-09T00:51:53;82.62;;;55.58;;
52266;SDS011;38223;50.940;4.034;2023-04-09T00:54:20;84.30;;;55.73;;
52266;SDS011;38223;50.940;4.034;2023-04-09T00:56:48;85.22;;;56.53;;
52266;SDS011;38223;50.940;4.034;2023-04-09T00:59:16;83.60;;;55.83;;
52266;SDS011;38223;50.940;4.034;2023-04-09T01:01:45;81.20;;;53.05;;
52266;SDS011;38223;50.940;4.034;2023-04-09T01:04:12;77.72;;;52.98;;
52266;SDS011;38223;50.940;4.034;2023-04-09T01:06:50;81.45;;;54.65;;
52266;SDS011;38223;50.940;4.034;2023-04-09T01:09:27;79.92;;;52.73;;
52266;SDS011;38223;50.940;4.034;2023-04-09T01:12:08;79.00;;;53.13;;
52266;SDS011;38223;50.940;4.034;2023-04-09T01:17:43;71.50;;;49.93;;
52266;SDS011;38223;50.940;4.034;2023-04-09T01:20:22;73.60;;;50.08;;
52266;SDS011;38223;50.940;4.034;2023-04-09T01:23:25;71.80;;;49.88;;
52266;SDS011;38223;50.940;4.034;2023-04-09T01:28:54;65.67;;;46.63;;
52266;SDS011;38223;50.940;4.034;2023-04-09T01:31:35;66.22;;;46.90;;
52266;SDS011;38223;50.940;4.034;2023-04-09T01:34:09;65.62;;;45.40;;
52266;SDS011;38223;50.940;4.034;2023-04-09T01:36:40;62.53;;;44.67;;
52266;SDS011;38223;50.940;4.034;2023-04-09T01:39:31;61.77;;;45.33;;
52266;SDS011;38223;50.940;4.034;2023-04-09T01:42:05;64.80;;;45.43;;
52266;SDS011;38223;50.940;4.034;2023-04-09T01:44:41;57.50;;;42.55;;
52266;SDS011;38223;50.940;4.034;2023-04-09T01:47:20;50.63;;;36.65;;
52266;SDS011;38223;50.940;4.034;2023-04-09T01:49:55;46.35;;;36.38;;
52266;SDS011;38223;50.940;4.034;2023-04-09T01:52:23;48.83;;;36.28;;
52266;SDS011;38223;50.940;4.034;2023-04-09T01:54:51;46.68;;;35.17;;
52266;SDS011;38223;50.940;4.034;2023-04-09T01:57:27;40.45;;;34.23;;
52266;SDS011;38223;50.940;4.034;2023-04-09T02:00:07;40.95;;;32.67;;
52266;SDS011;38223;50.940;4.034;2023-04-09T02:02:58;40.65;;;33.75;;
52266;SDS011;38223;50.940;4.034;2023-04-09T02:05:21;43.68;;;34.27;;
52266;SDS011;38223;50.940;4.034;2023-04-09T02:07:55;39.85;;;32.40;;
52266;SDS011;38223;50.940;4.034;2023-04-09T02:10:29;41.88;;;33.85;;
52266;SDS011;38223;50.940;4.034;2023-04-09T02:12:59;37.45;;;31.20;;
52266;SDS011;38223;50.940;4.034;2023-04-09T02:15:35;40.67;;;31.07;;
52266;SDS011;38223;50.940;4.034;2023-04-09T02:18:28;42.33;;;32.15;;
52266;SDS011;38223;50.940;4.034;2023-04-09T02:21:06;42.17;;;33.58;;
52266;SDS011;38223;50.940;4.034;2023-04-09T02:23:37;40.98;;;34.00;;
52266;SDS011;38223;50.940;4.034;2023-04-09T02:26:20;42.73;;;33.28;;
52266;SDS011;38223;50.940;4.034;2023-04-09T02:28:53;48.00;;;34.95;;
52266;SDS011;38223;50.940;4.034;2023-04-09T02:31:27;43.20;;;34.88;;
52266;SDS011;38223;50.940;4.034;2023-04-09T02:34:00;43.45;;;34.80;;
52266;SDS011;38223;50.940;4.034;2023-04-09T02:36:33;45.98;;;35.25;;
52266;SDS011;38223;50.940;4.034;2023-04-09T02:39:06;44.13;;;34.58;;
52266;SDS011;38223;50.940;4.034;2023-04-09T02:41:34;45.83;;;34.00;;
52266;SDS011;38223;50.940;4.034;2023-04-09T02:44:02;43.58;;;33.88;;
52266;SDS011;38223;50.940;4.034;2023-04-09T02:46:37;46.35;;;35.40;;
52266;SDS011;38223;50.940;4.034;2023-04-09T02:49:15;46.58;;;34.55;;
52266;SDS011;38223;50.940;4.034;2023-04-09T02:51:45;47.88;;;35.73;;
52266;SDS011;38223;50.940;4.034;2023-04-09T02:54:24;44.80;;;34.03;;
52266;SDS011;38223;50.940;4.034;2023-04-09T02:57:10;45.85;;;34.63;;
52266;SDS011;38223;50.940;4.034;2023-04-09T02:59:49;49.40;;;36.15;;
52266;SDS011;38223;50.940;4.034;2023-04-09T03:02:29;43.65;;;35.50;;
52266;SDS011;38223;50.940;4.034;2023-04-09T03:04:59;49.95;;;36.95;;
52266;SDS011;38223;50.940;4.034;2023-04-09T03:07:47;43.40;;;34.80;;
52266;SDS011;38223;50.940;4.034;2023-04-09T03:10:24;47.50;;;35.70;;
52266;SDS011;38223;50.940;4.034;2023-04-09T03:13:00;49.30;;;36.28;;
52266;SDS011;38223;50.940;4.034;2023-04-09T03:15:33;45.33;;;35.92;;
52266;SDS011;38223;50.940;4.034;2023-04-09T03:18:04;55.25;;;38.10;;
52266;SDS011;38223;50.940;4.034;2023-04-09T03:20:38;51.05;;;37.15;;
52266;SDS011;38223;50.940;4.034;2023-04-09T03:23:15;49.08;;;35.55;;
52266;SDS011;38223;50.940;4.034;2023-04-09T03:26:01;50.23;;;36.03;;
52266;SDS011;38223;50.940;4.034;2023-04-09T03:28:34;49.00;;;36.30;;
52266;SDS011;38223;50.940;4.034;2023-04-09T03:31:12;46.60;;;35.73;;
52266;SDS011;38223;50.940;4.034;2023-04-09T03:33:47;45.38;;;34.60;;
52266;SDS011;38223;50.940;4.034;2023-04-09T03:36:18;50.78;;;36.42;;
52266;SDS011;38223;50.940;4.034;2023-04-09T03:38:52;49.67;;;34.67;;
52266;SDS011;38223;50.940;4.034;2023-04-09T03:41:29;45.78;;;35.43;;
52266;SDS011;38223;50.940;4.034;2023-04-09T03:44:01;47.38;;;35.05;;
52266;SDS011;38223;50.940;4.034;2023-04-09T03:46:37;45.40;;;35.20;;
52266;SDS011;38223;50.940;4.034;2023-04-09T03:49:17;45.50;;;35.03;;
52266;SDS011;38223;50.940;4.034;2023-04-09T03:51:50;45.40;;;34.58;;
52266;SDS011;38223;50.940;4.034;2023-04-09T03:54:29;41.83;;;33.67;;
52266;SDS011;38223;50.940;4.034;2023-04-09T03:57:06;42.10;;;34.92;;
52266;SDS011;38223;50.940;4.034;2023-04-09T03:59:36;48.40;;;35.00;;
52266;SDS011;38223;50.940;4.034;2023-04-09T04:05:06;46.53;;;36.15;;
52266;SDS011;38223;50.940;4.034;2023-04-09T04:07:39;48.95;;;36.95;;
52266;SDS011;38223;50.940;4.034;2023-04-09T04:10:14;50.45;;;36.30;;
52266;SDS011;38223;50.940;4.034;2023-04-09T04:13:01;46.42;;;36.17;;
52266;SDS011;38223;50.940;4.034;2023-04-09T04:15:43;43.73;;;35.10;;
52266;SDS011;38223;50.940;4.034;2023-04-09T04:18:09;50.58;;;36.15;;
52266;SDS011;38223;50.940;4.034;2023-04-09T04:20:39;44.70;;;35.13;;
52266;SDS011;38223;50.940;4.034;2023-04-09T04:23:12;52.17;;;36.40;;
52266;SDS011;38223;50.940;4.034;2023-04-09T04:25:48;47.48;;;36.48;;
52266;SDS011;38223;50.940;4.034;2023-04-09T04:28:23;46.23;;;35.78;;
52266;SDS011;38223;50.940;4.034;2023-04-09T04:30:59;50.12;;;35.60;;
52266;SDS011;38223;50.940;4.034;2023-04-09T04:33:29;46.88;;;36.17;;
52266;SDS011;38223;50.940;4.034;2023-04-09T04:36:10;45.10;;;34.92;;
52266;SDS011;38223;50.940;4.034;2023-04-09T04:38:45;47.03;;;37.33;;
52266;SDS011;38223;50.940;4.034;2023-04-09T04:41:29;46.18;;;34.38;;
52266;SDS011;38223;50.940;4.034;2023-04-09T04:44:01;47.03;;;36.83;;
52266;SDS011;38223;50.940;4.034;2023-04-09T04:46:33;51.43;;;37.27;;
52266;SDS011;38223;50.940;4.034;2023-04-09T04:49:03;45.40;;;35.50;;
52266;SDS011;38223;50.940;4.034;2023-04-09T04:51:38;48.17;;;35.73;;
52266;SDS011;38223;50.940;4.034;2023-04-09T04:54:13;46.37;;;35.68;;
52266;SDS011;38223;50.940;4.034;2023-04-09T04:56:48;43.05;;;34.78;;
52266;SDS011;38223;50.940;4.034;2023-04-09T04:59:25;47.58;;;34.63;;
52266;SDS011;38223;50.940;4.034;2023-04-09T05:01:58;47.78;;;36.03;;
52266;SDS011;38223;50.940;4.034;2023-04-09T05:04:30;47.05;;;35.88;;
52266;SDS011;38223;50.940;4.034;2023-04-09T05:07:02;47.88;;;36.75;;
52266;SDS011;38223;50.940;4.034;2023-04-09T05:09:43;48.42;;;36.58;;
52266;SDS011;38223;50.940;4.034;2023-04-09T05:12:17;48.90;;;34.63;;
52266;SDS011;38223;50.940;4.034;2023-04-09T05:14:47;46.10;;;34.33;;
52266;SDS011;38223;50.940;4.034;2023-04-09T05:17:20;46.02;;;33.80;;
52266;SDS011;38223;50.940;4.034;2023-04-09T05:19:55;44.30;;;34.58;;
52266;SDS011;38223;50.940;4.034;2023-04-09T05:22:28;46.73;;;34.53;;
52266;SDS011;38223;50.940;4.034;2023-04-09T05:24:58;43.42;;;34.50;;
52266;SDS011;38223;50.940;4.034;2023-04-09T05:27:35;43.83;;;34.43;;
52266;SDS011;38223;50.940;4.034;2023-04-09T05:30:06;43.80;;;34.65;;
52266;SDS011;38223;50.940;4.034;2023-04-09T05:32:40;45.48;;;35.38;;
52266;SDS011;38223;50.940;4.034;2023-04-09T05:35:19;43.70;;;34.88;;
52266;SDS011;38223;50.940;4.034;2023-04-09T05:37:58;45.23;;;34.92;;
52266;SDS011;38223;50.940;4.034;2023-04-09T05:40:33;43.55;;;33.40;;
52266;SDS011;38223;50.940;4.034;2023-04-09T05:43:03;45.30;;;33.98;;
52266;SDS011;38223;50.940;4.034;2023-04-09T05:45:39;39.73;;;32.83;;
52266;SDS011;38223;50.940;4.034;2023-04-09T05:48:10;40.70;;;32.50;;
52266;SDS011;38223;50.940;4.034;2023-04-09T05:50:49;41.83;;;32.67;;
52266;SDS011;38223;50.940;4.034;2023-04-09T05:55:54;41.48;;;31.75;;
52266;SDS011;38223;50.940;4.034;2023-04-09T05:58:30;42.27;;;32.93;;
52266;SDS011;38223;50.940;4.034;2023-04-09T06:01:05;42.08;;;32.60;;
52266;SDS011;38223;50.940;4.034;2023-04-09T06:03:36;43.55;;;33.42;;
52266;SDS011;38223;50.940;4.034;2023-04-09T06:06:13;41.88;;;32.45;;
52266;SDS011;38223;50.940;4.034;2023-04-09T06:08:43;43.73;;;32.63;;
52266;SDS011;38223;50.940;4.034;2023-04-09T06:11:31;40.73;;;31.27;;
52266;SDS011;38223;50.940;4.034;2023-04-09T06:14:03;48.73;;;35.25;;
52266;SDS011;38223;50.940;4.034;2023-04-09T06:16:35;47.48;;;35.28;;
52266;SDS011;38223;50.940;4.034;2023-04-09T06:19:04;42.08;;;32.05;;
52266;SDS011;38223;50.940;4.034;2023-04-09T06:21:32;47.80;;;33.92;;
52266;SDS011;38223;50.940;4.034;2023-04-09T06:24:14;42.03;;;33.70;;
52266;SDS011;38223;50.940;4.034;2023-04-09T06:26:43;45.08;;;33.98;;
52266;SDS011;38223;50.940;4.034;2023-04-09T06:29:19;47.62;;;34.55;;
52266;SDS011;38223;50.940;4.034;2023-04-09T06:31:49;49.70;;;35.80;;
52266;SDS011;38223;50.940;4.034;2023-04-09T06:34:24;47.98;;;36.03;;
52266;SDS011;38223;50.940;4.034;2023-04-09T06:36:57;53.25;;;37.17;;
52266;SDS011;38223;50.940;4.034;2023-04-09T06:39:30;47.93;;;35.63;;
52266;SDS011;38223;50.940;4.034;2023-04-09T06:42:09;46.83;;;35.28;;
52266;SDS011;38223;50.940;4.034;2023-04-09T06:44:50;47.73;;;34.67;;
52266;SDS011;38223;50.940;4.034;2023-04-09T06:47:21;50.35;;;36.85;;
52266;SDS011;38223;50.940;4.034;2023-04-09T06:49:49;50.48;;;38.45;;
52266;SDS011;38223;50.940;4.034;2023-04-09T06:52:19;50.10;;;36.85;;
52266;SDS011;38223;50.940;4.034;2023-04-09T06:54:55;50.12;;;37.75;;
52266;SDS011;38223;50.940;4.034;2023-04-09T06:57:32;50.70;;;37.88;;
52266;SDS011;38223;50.940;4.034;2023-04-09T07:00:02;55.28;;;39.35;;
52266;SDS011;38223;50.940;4.034;2023-04-09T07:04:59;54.27;;;39.10;;
52266;SDS011;38223;50.940;4.034;2023-04-09T07:07:35;57.38;;;42.30;;
52266;SDS011;38223;50.940;4.034;2023-04-09T07:10:09;60.75;;;41.25;;
52266;SDS011;38223;50.940;4.034;2023-04-09T07:12:40;63.30;;;44.65;;
52266;SDS011;38223;50.940;4.034;2023-04-09T07:15:10;65.32;;;44.10;;
52266;SDS011;38223;50.940;4.034;2023-04-09T07:17:50;63.17;;;44.60;;
52266;SDS011;38223;50.940;4.034;2023-04-09T07:20:23;60.73;;;44.30;;
52266;SDS011;38223;50.940;4.034;2023-04-09T07:22:55;60.38;;;43.45;;
52266;SDS011;38223;50.940;4.034;2023-04-09T07:25:27;64.50;;;45.45;;
52266;SDS011;38223;50.940;4.034;2023-04-09T07:27:56;61.92;;;43.42;;
52266;SDS011;38223;50.940;4.034;2023-04-09T07:30:25;60.10;;;42.95;;
52266;SDS011;38223;50.940;4.034;2023-04-09T07:32:57;62.90;;;45.73;;
52266;SDS011;38223;50.940;4.034;2023-04-09T07:35:30;66.72;;;46.65;;
52266;SDS011;38223;50.940;4.034;2023-04-09T07:38:04;72.25;;;47.03;;
52266;SDS011;38223;50.940;4.034;2023-04-09T07:40:38;66.05;;;47.13;;
52266;SDS011;38223;50.940;4.034;2023-04-09T07:43:09;68.83;;;47.30;;
52266;SDS011;38223;50.940;4.034;2023-04-09T07:45:42;64.20;;;45.23;;
52266;SDS011;38223;50.940;4.034;2023-04-09T07:48:11;63.40;;;45.60;;
52266;SDS011;38223;50.940;4.034;2023-04-09T07:50:38;67.95;;;46.13;;
52266;SDS011;38223;50.940;4.034;2023-04-09T07:53:11;64.82;;;45.15;;
52266;SDS011;38223;50.940;4.034;2023-04-09T07:55:46;68.22;;;46.50;;
52266;SDS011;38223;50.940;4.034;2023-04-09T07:58:16;63.48;;;43.87;;
52266;SDS011;38223;50.940;4.034;2023-04-09T08:00:52;62.38;;;43.20;;
52266;SDS011;38223;50.940;4.034;2023-04-09T08:03:22;60.50;;;42.15;;
52266;SDS011;38223;50.940;4.034;2023-04-09T08:05:54;57.08;;;42.13;;
52266;SDS011;38223;50.940;4.034;2023-04-09T08:08:26;58.25;;;40.95;;
52266;SDS011;38223;50.940;4.034;2023-04-09T08:10:58;57.03;;;40.88;;
52266;SDS011;38223;50.940;4.034;2023-04-09T08:13:29;59.50;;;41.65;;
52266;SDS011;38223;50.940;4.034;2023-04-09T08:16:04;57.60;;;41.35;;
52266;SDS011;38223;50.940;4.034;2023-04-09T08:18:38;59.67;;;42.00;;
52266;SDS011;38223;50.940;4.034;2023-04-09T08:21:14;55.10;;;40.45;;
52266;SDS011;38223;50.940;4.034;2023-04-09T08:23:48;61.30;;;39.75;;
52266;SDS011;38223;50.940;4.034;2023-04-09T08:26:21;54.20;;;38.90;;
52266;SDS011;38223;50.940;4.034;2023-04-09T08:28:54;54.98;;;39.13;;
52266;SDS011;38223;50.940;4.034;2023-04-09T08:31:31;55.75;;;39.95;;
52266;SDS011;38223;50.940;4.034;2023-04-09T08:34:00;51.83;;;38.30;;
52266;SDS011;38223;50.940;4.034;2023-04-09T08:36:27;53.58;;;38.53;;
52266;SDS011;38223;50.940;4.034;2023-04-09T08:39:03;54.73;;;40.67;;
52266;SDS011;38223;50.940;4.034;2023-04-09T08:41:32;51.28;;;37.95;;
52266;SDS011;38223;50.940;4.034;2023-04-09T08:44:02;53.50;;;39.58;;
52266;SDS011;38223;50.940;4.034;2023-04-09T08:46:31;56.92;;;40.45;;
52266;SDS011;38223;50.940;4.034;2023-04-09T08:49:00;55.73;;;38.17;;
52266;SDS011;38223;50.940;4.034;2023-04-09T08:51:28;54.80;;;38.70;;
52266;SDS011;38223;50.940;4.034;2023-04-09T08:53:58;54.98;;;39.30;;
52266;SDS011;38223;50.940;4.034;2023-04-09T08:58:54;57.40;;;38.83;;
52266;SDS011;38223;50.940;4.034;2023-04-09T09:01:23;52.15;;;37.83;;
52266;SDS011;38223;50.940;4.034;2023-04-09T09:03:59;52.43;;;39.18;;
52266;SDS011;38223;50.940;4.034;2023-04-09T09:06:37;51.02;;;36.42;;
52266;SDS011;38223;50.940;4.034;2023-04-09T09:11:42;45.17;;;34.25;;
52266;SDS011;38223;50.940;4.034;2023-04-09T09:14:12;44.77;;;33.90;;
52266;SDS011;38223;50.940;4.034;2023-04-09T09:17:06;45.50;;;32.53;;
52266;SDS011;38223;50.940;4.034;2023-04-09T09:22:03;42.62;;;32.45;;
52266;SDS011;38223;50.940;4.034;2023-04-09T09:24:46;41.42;;;32.10;;
52266;SDS011;38223;50.940;4.034;2023-04-09T09:27:33;40.38;;;31.65;;
52266;SDS011;38223;50.940;4.034;2023-04-09T09:30:06;44.03;;;32.33;;
52266;SDS011;38223;50.940;4.034;2023-04-09T09:32:36;44.42;;;32.45;;
52266;SDS011;38223;50.940;4.034;2023-04-09T09:35:05;44.38;;;33.63;;
52266;SDS011;38223;50.940;4.034;2023-04-09T09:37:39;44.38;;;34.50;;
52266;SDS011;38223;50.940;4.034;2023-04-09T09:40:27;43.20;;;33.38;;
52266;SDS011;38223;50.940;4.034;2023-04-09T09:42:59;43.80;;;33.30;;
52266;SDS011;38223;50.940;4.034;2023-04-09T09:45:32;44.03;;;32.73;;
52266;SDS011;38223;50.940;4.034;2023-04-09T09:48:10;46.53;;;34.05;;
52266;SDS011;38223;50.940;4.034;2023-04-09T09:50:42;43.60;;;32.53;;
52266;SDS011;38223;50.940;4.034;2023-04-09T09:53:13;44.73;;;34.63;;
52266;SDS011;38223;50.940;4.034;2023-04-09T09:55:50;40.50;;;31.15;;
52266;SDS011;38223;50.940;4.034;2023-04-09T09:58:25;43.75;;;33.40;;
52266;SDS011;38223;50.940;4.034;2023-04-09T10:00:56;40.65;;;31.48;;
52266;SDS011;38223;50.940;4.034;2023-04-09T10:03:28;43.05;;;32.53;;
52266;SDS011;38223;50.940;4.034;2023-04-09T10:06:02;39.65;;;30.72;;
52266;SDS011;38223;50.940;4.034;2023-04-09T10:08:31;40.55;;;29.77;;
52266;SDS011;38223;50.940;4.034;2023-04-09T10:11:02;40.28;;;31.00;;
52266;SDS011;38223;50.940;4.034;2023-04-09T10:13:34;35.95;;;28.85;;
52266;SDS011;38223;50.940;4.034;2023-04-09T10:16:12;36.45;;;28.30;;
52266;SDS011;38223;50.940;4.034;2023-04-09T10:18:50;32.05;;;25.80;;
52266;SDS011;38223;50.940;4.034;2023-04-09T10:21:30;31.00;;;24.15;;
52266;SDS011;38223;50.940;4.034;2023-04-09T10:24:10;30.50;;;25.50;;
52266;SDS011;38223;50.940;4.034;2023-04-09T10:26:58;30.15;;;24.65;;
52266;SDS011;38223;50.940;4.034;2023-04-09T10:29:30;33.48;;;25.45;;
52266;SDS011;38223;50.940;4.034;2023-04-09T10:32:08;31.07;;;24.63;;
52266;SDS011;38223;50.940;4.034;2023-04-09T10:34:39;38.05;;;24.12;;
52266;SDS011;38223;50.940;4.034;2023-04-09T10:37:13;26.95;;;20.52;;
52266;SDS011;38223;50.940;4.034;2023-04-09T10:39:47;28.73;;;22.67;;
52266;SDS011;38223;50.940;4.034;2023-04-09T10:42:18;25.57;;;22.07;;
52266;SDS011;38223;50.940;4.034;2023-04-09T10:45:12;24.18;;;21.57;;
52266;SDS011;38223;50.940;4.034;2023-04-09T10:47:35;24.30;;;21.70;;
52266;SDS011;38223;50.940;4.034;2023-04-09T10:50:15;24.00;;;21.00;;
52266;SDS011;38223;50.940;4.034;2023-04-09T10:52:55;25.48;;;22.07;;
52266;SDS011;38223;50.940;4.034;2023-04-09T10:55:44;29.45;;;23.07;;
52266;SDS011;38223;50.940;4.034;2023-04-09T10:58:15;27.05;;;22.48;;
52266;SDS011;38223;50.940;4.034;2023-04-09T11:00:48;31.37;;;24.87;;
52266;SDS011;38223;50.940;4.034;2023-04-09T11:03:26;26.75;;;23.85;;
52266;SDS011;38223;50.940;4.034;2023-04-09T11:06:03;29.82;;;24.72;;
52266;SDS011;38223;50.940;4.034;2023-04-09T11:08:55;24.82;;;21.40;;
52266;SDS011;38223;50.940;4.034;2023-04-09T11:11:26;28.32;;;22.95;;
52266;SDS011;38223;50.940;4.034;2023-04-09T11:13:57;23.55;;;21.05;;
52266;SDS011;38223;50.940;4.034;2023-04-09T11:16:28;23.75;;;21.17;;
52266;SDS011;38223;50.940;4.034;2023-04-09T11:19:07;24.67;;;20.88;;
52266;SDS011;38223;50.940;4.034;2023-04-09T11:21:43;25.62;;;22.45;;
52266;SDS011;38223;50.940;4.034;2023-04-09T11:24:12;24.10;;;21.33;;
52266;SDS011;38223;50.940;4.034;2023-04-09T11:26:40;24.95;;;22.02;;
52266;SDS011;38223;50.940;4.034;2023-04-09T11:29:21;26.50;;;22.58;;
52266;SDS011;38223;50.940;4.034;2023-04-09T11:31:49;26.93;;;20.77;;
52266;SDS011;38223;50.940;4.034;2023-04-09T11:34:20;21.90;;;19.60;;
52266;SDS011;38223;50.940;4.034;2023-04-09T11:36:50;25.27;;;21.80;;
52266;SDS011;38223;50.940;4.034;2023-04-09T11:39:17;23.83;;;20.68;;
52266;SDS011;38223;50.940;4.034;2023-04-09T11:41:45;24.60;;;20.55;;
52266;SDS011;38223;50.940;4.034;2023-04-09T11:44:13;30.30;;;23.87;;
52266;SDS011;38223;50.940;4.034;2023-04-09T11:46:41;27.48;;;22.77;;
52266;SDS011;38223;50.940;4.034;2023-04-09T11:49:09;23.80;;;18.77;;
52266;SDS011;38223;50.940;4.034;2023-04-09T11:51:38;23.83;;;20.30;;
52266;SDS011;38223;50.940;4.034;2023-04-09T11:54:06;23.60;;;20.08;;
52266;SDS011;38223;50.940;4.034;2023-04-09T11:56:34;18.60;;;16.70;;
52266;SDS011;38223;50.940;4.034;2023-04-09T11:59:13;20.23;;;18.10;;
52266;SDS011;38223;50.940;4.034;2023-04-09T12:01:41;18.45;;;16.65;;
52266;SDS011;38223;50.940;4.034;2023-04-09T12:04:17;21.80;;;19.17;;
52266;SDS011;38223;50.940;4.034;2023-04-09T12:06:42;21.62;;;19.32;;
52266;SDS011;38223;50.940;4.034;2023-04-09T12:09:10;21.23;;;18.90;;
52266;SDS011;38223;50.940;4.034;2023-04-09T12:11:41;19.92;;;17.65;;
52266;SDS011;38223;50.940;4.034;2023-04-09T12:14:15;18.80;;;16.62;;
52266;SDS011;38223;50.940;4.034;2023-04-09T12:16:43;18.35;;;14.80;;
52266;SDS011;38223;50.940;4.034;2023-04-09T12:19:11;15.95;;;14.45;;
52266;SDS011;38223;50.940;4.034;2023-04-09T12:21:54;14.28;;;12.93;;
52266;SDS011;38223;50.940;4.034;2023-04-09T12:26:48;19.75;;;17.65;;
52266;SDS011;38223;50.940;4.034;2023-04-09T12:29:18;19.27;;;17.37;;
52266;SDS011;38223;50.940;4.034;2023-04-09T12:31:46;18.65;;;15.90;;
52266;SDS011;38223;50.940;4.034;2023-04-09T12:34:14;17.95;;;16.20;;
52266;SDS011;38223;50.940;4.034;2023-04-09T12:36:42;17.98;;;16.27;;
52266;SDS011;38223;50.940;4.034;2023-04-09T12:39:13;16.40;;;14.70;;
52266;SDS011;38223;50.940;4.034;2023-04-09T12:41:55;18.50;;;16.20;;
52266;SDS011;38223;50.940;4.034;2023-04-09T12:44:28;19.10;;;16.97;;
52266;SDS011;38223;50.940;4.034;2023-04-09T12:46:59;18.98;;;16.93;;
52266;SDS011;38223;50.940;4.034;2023-04-09T12:49:34;18.17;;;16.48;;
52266;SDS011;38223;50.940;4.034;2023-04-09T12:52:01;17.67;;;15.98;;
52266;SDS011;38223;50.940;4.034;2023-04-09T12:54:29;17.42;;;15.83;;
52266;SDS011;38223;50.940;4.034;2023-04-09T12:56:57;18.87;;;16.85;;
52266;SDS011;38223;50.940;4.034;2023-04-09T12:59:26;16.60;;;14.87;;
52266;SDS011;38223;50.940;4.034;2023-04-09T13:01:55;15.98;;;14.38;;
52266;SDS011;38223;50.940;4.034;2023-04-09T13:04:28;14.63;;;13.35;;
52266;SDS011;38223;50.940;4.034;2023-04-09T13:06:58;17.00;;;15.38;;
52266;SDS011;38223;50.940;4.034;2023-04-09T13:09:40;16.25;;;14.53;;
52266;SDS011;38223;50.940;4.034;2023-04-09T13:12:10;15.78;;;14.35;;
52266;SDS011;38223;50.940;4.034;2023-04-09T13:14:38;16.70;;;15.10;;
52266;SDS011;38223;50.940;4.034;2023-04-09T13:17:06;17.57;;;15.48;;
52266;SDS011;38223;50.940;4.034;2023-04-09T13:19:37;17.50;;;15.80;;
52266;SDS011;38223;50.940;4.034;2023-04-09T13:22:10;16.40;;;14.68;;
52266;SDS011;38223;50.940;4.034;2023-04-09T13:24:38;16.90;;;15.20;;
52266;SDS011;38223;50.940;4.034;2023-04-09T13:27:08;20.80;;;15.40;;
52266;SDS011;38223;50.940;4.034;2023-04-09T13:29:36;15.10;;;13.58;;
52266;SDS011;38223;50.940;4.034;2023-04-09T13:32:04;16.05;;;14.55;;
52266;SDS011;38223;50.940;4.034;2023-04-09T13:34:32;14.60;;;13.20;;
52266;SDS011;38223;50.940;4.034;2023-04-09T13:37:06;15.70;;;14.03;;
52266;SDS011;38223;50.940;4.034;2023-04-09T13:39:30;15.15;;;13.60;;
52266;SDS011;38223;50.940;4.034;2023-04-09T13:41:58;15.05;;;13.65;;
52266;SDS011;38223;50.940;4.034;2023-04-09T13:44:27;15.50;;;13.90;;
52266;SDS011;38223;50.940;4.034;2023-04-09T13:46:57;13.65;;;12.30;;
52266;SDS011;38223;50.940;4.034;2023-04-09T13:49:46;14.43;;;13.08;;
52266;SDS011;38223;50.940;4.034;2023-04-09T13:52:15;13.53;;;12.27;;
52266;SDS011;38223;50.940;4.034;2023-04-09T13:54:44;14.38;;;12.95;;
52266;SDS011;38223;50.940;4.034;2023-04-09T13:57:17;14.60;;;13.13;;
52266;SDS011;38223;50.940;4.034;2023-04-09T13:59:47;13.38;;;12.07;;
52266;SDS011;38223;50.940;4.034;2023-04-09T14:02:18;12.33;;;11.25;;
52266;SDS011;38223;50.940;4.034;2023-04-09T14:04:46;10.90;;;9.90;;
52266;SDS011;38223;50.940;4.034;2023-04-09T14:07:14;11.53;;;10.38;;
52266;SDS011;38223;50.940;4.034;2023-04-09T14:09:41;11.80;;;10.78;;
52266;SDS011;38223;50.940;4.034;2023-04-09T14:12:15;11.18;;;10.08;;
52266;SDS011;38223;50.940;4.034;2023-04-09T14:14:54;13.50;;;12.10;;
52266;SDS011;38223;50.940;4.034;2023-04-09T14:17:25;13.28;;;12.00;;
52266;SDS011;38223;50.940;4.034;2023-04-09T14:19:57;15.38;;;13.90;;
52266;SDS011;38223;50.940;4.034;2023-04-09T14:22:32;13.90;;;12.65;;
52266;SDS011;38223;50.940;4.034;2023-04-09T14:25:04;15.05;;;12.40;;
52266;SDS011;38223;50.940;4.034;2023-04-09T14:27:33;14.40;;;13.20;;
52266;SDS011;38223;50.940;4.034;2023-04-09T14:30:01;14.03;;;12.73;;
52266;SDS011;38223;50.940;4.034;2023-04-09T14:32:29;15.38;;;13.58;;
52266;SDS011;38223;50.940;4.034;2023-04-09T14:34:56;14.93;;;13.53;;
52266;SDS011;38223;50.940;4.034;2023-04-09T14:37:26;13.32;;;12.18;;
52266;SDS011;38223;50.940;4.034;2023-04-09T14:39:53;13.35;;;11.50;;
52266;SDS011;38223;50.940;4.034;2023-04-09T14:42:23;14.93;;;11.68;;
52266;SDS011;38223;50.940;4.034;2023-04-09T14:44:57;12.80;;;11.50;;
52266;SDS011;38223;50.940;4.034;2023-04-09T14:47:30;12.18;;;11.05;;
52266;SDS011;38223;50.940;4.034;2023-04-09T14:50:12;12.80;;;11.65;;
52266;SDS011;38223;50.940;4.034;2023-04-09T14:52:41;12.30;;;11.10;;
52266;SDS011;38223;50.940;4.034;2023-04-09T14:55:10;11.75;;;10.68;;
52266;SDS011;38223;50.940;4.034;2023-04-09T14:57:50;12.07;;;10.98;;
52266;SDS011;38223;50.940;4.034;2023-04-09T15:00:22;11.97;;;10.85;;
52266;SDS011;38223;50.940;4.034;2023-04-09T15:02:50;13.00;;;11.03;;
52266;SDS011;38223;50.940;4.034;2023-04-09T15:05:17;11.22;;;10.23;;
52266;SDS011;38223;50.940;4.034;2023-04-09T15:07:45;10.90;;;9.90;;
52266;SDS011;38223;50.940;4.034;2023-04-09T15:10:13;8.65;;;7.85;;
52266;SDS011;38223;50.940;4.034;2023-04-09T15:12:40;9.40;;;7.67;;
52266;SDS011;38223;50.940;4.034;2023-04-09T15:15:08;9.95;;;7.65;;
52266;SDS011;38223;50.940;4.034;2023-04-09T15:17:37;9.30;;;8.50;;
52266;SDS011;38223;50.940;4.034;2023-04-09T15:20:06;9.33;;;8.43;;